Haysville, KS

4:04 AM CDT on August 28, 2014 (GMT -0500)
City Building | Change Station
CLOSE
Current Station
Personal Weather Station
Location: Haysville, KS
Elevation: 1263 ft
Nearby Weather Stations

Elev 1263 ft 37.56 °N, 97.35 °W | Updated 2 minutes ago

Overcast
Overcast
78.0 °F
Feels Like 76 °F
N
0.0
Wind Variable Wind from SSE
Gusts 0.0 mph

Today
High -- | Low -- °F
--% Chance of Precip.
Yesterday
High -- | Low -- °F
Precip. -- in
6:56 AM 8:04 PM
Waxing Crescent, 7% visible
Pressure 29.92 in
Visibility 10.0 miles
Clouds Scattered Clouds 14000 ft
Overcast 21000 ft
Heat Index 76 °F
Dew Point Not available.
Humidity Not available.
Rainfall 0.00 in
Snow Depth Not available.
UV 0 out of 12
Pollen 11.10 out of 12
Air Quality Not available.
Flu Activity Not available.
METAR KIAB 280858Z AUTO 15010KT 10SM SCT140 OVC210 26/19 A2996 RMK AO2 SLP132 T02570188 57010

More Conditions Fewer Conditions

Pressure 29.92 in
Visibility 10.0 miles
Clouds Scattered Clouds 14000 ft
Overcast 21000 ft
Heat Index 76 °F
Dew Point Not available.
Humidity Not available.
Rainfall 0.00 in
Snow Depth Not available.
UV 0 out of 12
Pollen 11.10 out of 12
Air Quality Not available.
Flu Activity Not available.
METAR KIAB 280858Z AUTO 15010KT 10SM SCT140 OVC210 26/19 A2996 RMK AO2 SLP132 T02570188 57010

More Conditions Fewer Conditions

10-Day Weather Forecast

Almanac

Astronomy

Aug. 28, 2014 Rise Set
Actual Time 6:56 AM CDT 8:04 PM CDT
Civil Twilight 6:29 AM CDT 8:31 PM CDT
Nautical Twilight 5:57 AM CDT 9:03 PM CDT
Astronomical Twilight 5:23 AM CDT 9:36 PM CDT
Moon 9:45 AM CDT 9:33 PM CDT
Length of Visible Light 14h 01m
Length of Day
13h 07m
Tomorrow will be 2m 17s shorter.
Waxing Crescent, 7% of the Moon is Illuminated
Today
Waxing Crescent
Sep 2
First Quarter
Sep 8
Full
Sep 15
Last Quarter
Sep 24
New

Today's Extremes

State Highs State Lows

Community

WunderPhotos

Upload Photos

1,747,918 photos uploaded!

Nearby

Snow Depth

Station Depth Elevation
No new snow has been reported.

Earthquake Activity

City Distance Mag. Time & Date
Stillwater, Oklahoma 101 miles 3.1 10:44 AM CDT
2014-08-27
Anthony, Kansas 45 miles 2.8 10:11 AM CDT
2014-08-27
Guthrie, Oklahoma 120 miles 3.2 11:05 AM CDT
2014-08-26
Perry, Oklahoma 93 miles 2.5 8:07 AM CDT
2014-08-26
Minimum magnitude displayed is 2.5.

Coastal Water Temperatures

Place Temperature
No Stations Reporting

Nearby Weather Stations